createdAt,value
2019-01-18T00:01:46.467Z,1.60
2019-01-18T00:04:14.831Z,1.17
2019-01-18T00:06:43.207Z,1.30
2019-01-18T00:09:11.568Z,1.20
2019-01-18T00:11:39.947Z,1.07
2019-01-18T00:14:08.338Z,1.10
2019-01-18T00:16:36.722Z,1.00
2019-01-18T00:19:05.089Z,1.20
2019-01-18T00:21:33.482Z,1.13
2019-01-18T00:24:02.089Z,1.63
2019-01-18T00:26:30.488Z,1.23
2019-01-18T00:28:58.863Z,0.93
2019-01-18T00:31:27.237Z,1.27
2019-01-18T00:33:55.601Z,1.20
2019-01-18T00:36:23.976Z,1.07
2019-01-18T00:38:52.356Z,1.23
2019-01-18T00:41:20.719Z,0.83
2019-01-18T00:43:49.104Z,1.00
2019-01-18T00:46:17.481Z,1.20
2019-01-18T00:48:45.856Z,1.00
2019-01-18T00:51:14.223Z,1.17
2019-01-18T00:53:42.612Z,1.40
2019-01-18T00:56:10.976Z,1.00
2019-01-18T00:58:39.357Z,1.22
2019-01-18T01:01:07.723Z,1.40
2019-01-18T01:03:36.096Z,1.00
2019-01-18T01:06:04.527Z,1.00
2019-01-18T01:08:32.909Z,1.40
2019-01-18T01:11:01.946Z,1.30
2019-01-18T01:13:30.395Z,1.30
2019-01-18T01:15:58.795Z,1.33
2019-01-18T01:18:27.167Z,1.10
2019-01-18T01:20:55.537Z,1.07
2019-01-18T01:23:23.909Z,0.97
2019-01-18T01:25:52.345Z,0.93
2019-01-18T01:28:20.727Z,1.20
2019-01-18T01:30:49.105Z,0.90
2019-01-18T01:33:17.485Z,0.90
2019-01-18T01:35:45.860Z,1.10
2019-01-18T01:38:15.275Z,1.20
2019-01-18T01:40:43.681Z,1.00
2019-01-18T01:43:12.066Z,1.30
2019-01-18T01:45:40.433Z,1.07
2019-01-18T01:48:08.979Z,0.97
2019-01-18T01:50:37.346Z,1.20
2019-01-18T01:53:05.722Z,1.20
2019-01-18T01:55:34.085Z,1.10
2019-01-18T01:58:04.104Z,1.33
2019-01-18T02:00:32.766Z,1.10
2019-01-18T02:03:01.197Z,1.17
2019-01-18T02:05:29.568Z,1.00
2019-01-18T02:07:57.932Z,1.10
2019-01-18T02:10:26.304Z,1.17
2019-01-18T02:12:54.671Z,0.90
2019-01-18T02:15:25.089Z,0.90
2019-01-18T02:17:53.696Z,1.33
2019-01-18T02:20:23.404Z,1.03
2019-01-18T02:22:52.312Z,0.80
2019-01-18T02:25:20.852Z,1.33
2019-01-18T02:27:49.394Z,0.90
2019-01-18T02:30:23.496Z,1.00
2019-01-18T02:32:51.854Z,1.20
2019-01-18T02:35:20.306Z,1.07
2019-01-18T02:37:48.741Z,0.93
2019-01-18T02:40:17.352Z,0.93
2019-01-18T02:42:45.901Z,1.10
2019-01-18T02:45:19.875Z,1.00
2019-01-18T02:47:48.237Z,0.90
2019-01-18T02:50:16.686Z,0.83
2019-01-18T02:52:45.060Z,1.10
2019-01-18T02:55:13.675Z,1.03
2019-01-18T02:57:42.111Z,1.10
2019-01-18T03:00:16.155Z,1.00
2019-01-18T03:02:44.594Z,1.07
2019-01-18T03:05:14.716Z,1.37
2019-01-18T03:07:43.084Z,1.05
2019-01-18T03:10:14.576Z,1.07
2019-01-18T03:12:42.961Z,1.03
2019-01-18T03:15:11.408Z,1.20
2019-01-18T03:17:39.776Z,1.20
2019-01-18T03:20:11.099Z,1.03
2019-01-18T03:22:39.471Z,1.10
2019-01-18T03:25:11.186Z,1.00
2019-01-18T03:27:39.556Z,1.15
2019-01-18T03:30:20.773Z,1.10
2019-01-18T03:32:48.594Z,1.23
2019-01-18T03:35:18.976Z,1.33
2019-01-18T03:37:47.337Z,0.97
2019-01-18T03:40:17.572Z,0.90
2019-01-18T03:42:45.944Z,0.93
2019-01-18T03:45:16.460Z,1.00
2019-01-18T03:47:44.835Z,0.93
2019-01-18T03:50:16.197Z,1.17
2019-01-18T03:52:44.626Z,1.10
2019-01-18T03:55:13.283Z,1.07
2019-01-18T03:57:41.649Z,1.30
2019-01-18T04:00:15.867Z,1.10
2019-01-18T04:02:44.234Z,1.20
2019-01-18T04:05:13.349Z,1.27
2019-01-18T04:07:41.901Z,1.00
2019-01-18T04:10:16.237Z,1.10
2019-01-18T04:12:44.611Z,1.13
2019-01-18T04:15:15.519Z,1.50
2019-01-18T04:17:43.972Z,1.30
2019-01-18T04:20:14.689Z,1.55
2019-01-18T04:22:43.067Z,1.07
2019-01-18T04:25:14.515Z,1.20
2019-01-18T04:27:42.904Z,1.17
2019-01-18T04:30:13.911Z,1.10
2019-01-18T04:32:43.276Z,1.13
2019-01-18T04:35:12.880Z,1.37
2019-01-18T04:37:41.536Z,1.63
2019-01-18T04:40:12.920Z,1.17
2019-01-18T04:42:41.513Z,1.20
2019-01-18T04:45:10.753Z,1.20
2019-01-18T04:47:39.145Z,1.27
2019-01-18T04:50:10.818Z,1.33
2019-01-18T04:52:39.201Z,1.20
2019-01-18T04:55:09.213Z,1.30
2019-01-18T04:57:37.588Z,1.77
2019-01-18T05:00:09.006Z,1.80
2019-01-18T05:02:37.382Z,1.67
2019-01-18T05:05:06.694Z,1.60
2019-01-18T05:07:35.074Z,1.60
2019-01-18T05:10:07.587Z,1.55
2019-01-18T05:12:35.970Z,1.50
2019-01-18T05:15:07.144Z,1.63
2019-01-18T05:17:35.534Z,1.50
2019-01-18T05:20:06.802Z,1.50
2019-01-18T05:22:35.179Z,1.83
2019-01-18T05:25:06.241Z,1.97
2019-01-18T05:27:34.630Z,1.93
2019-01-18T05:30:04.773Z,2.50
2019-01-18T05:32:33.147Z,2.53
2019-01-18T05:35:01.516Z,1.90
2019-01-18T05:37:29.878Z,2.90
2019-01-18T05:39:58.255Z,2.07
2019-01-18T05:42:26.625Z,2.20
2019-01-18T05:44:55.007Z,2.30
2019-01-18T05:47:23.377Z,2.30
2019-01-18T05:49:51.758Z,1.93
2019-01-18T05:52:20.118Z,2.00
2019-01-18T05:54:48.494Z,2.50
2019-01-18T05:57:16.871Z,2.00
2019-01-18T05:59:45.261Z,2.30
2019-01-18T06:02:13.636Z,2.07
2019-01-18T06:04:43.892Z,2.50
2019-01-18T06:07:12.262Z,1.70
2019-01-18T06:09:40.638Z,1.97
2019-01-18T06:12:09.006Z,1.90
2019-01-18T06:14:37.386Z,2.40
2019-01-18T06:17:05.750Z,2.60
2019-01-18T06:19:34.988Z,2.10
2019-01-18T06:22:03.354Z,1.83
2019-01-18T06:24:31.742Z,2.70
2019-01-18T06:27:00.113Z,1.93
2019-01-18T06:29:28.482Z,2.20
2019-01-18T06:31:56.850Z,2.40
2019-01-18T06:34:25.228Z,2.20
2019-01-18T06:36:53.592Z,2.43
2019-01-18T06:39:21.970Z,2.07
2019-01-18T06:41:50.719Z,2.10
2019-01-18T06:44:19.107Z,2.17
2019-01-18T06:46:47.480Z,2.20
2019-01-18T06:49:16.539Z,2.23
2019-01-18T06:51:44.905Z,2.00
2019-01-18T06:54:13.276Z,2.03
2019-01-18T06:56:41.651Z,2.20
2019-01-18T06:59:10.024Z,2.17
2019-01-18T07:01:38.409Z,1.83
2019-01-18T07:04:06.774Z,2.50
2019-01-18T07:06:35.149Z,2.20
2019-01-18T07:09:05.603Z,1.97
2019-01-18T07:11:34.791Z,2.00
2019-01-18T07:14:03.221Z,2.37
2019-01-18T07:16:31.603Z,1.80
2019-01-18T07:18:59.969Z,2.20
2019-01-18T07:21:28.347Z,2.33
2019-01-18T07:23:56.713Z,2.27
2019-01-18T07:26:25.099Z,2.40
2019-01-18T07:28:53.469Z,2.67
2019-01-18T07:31:21.864Z,2.20
2019-01-18T07:33:50.236Z,2.40
2019-01-18T07:36:18.942Z,2.20
2019-01-18T07:38:47.362Z,2.10
2019-01-18T07:41:15.878Z,2.40
2019-01-18T07:43:44.521Z,2.70
2019-01-18T07:46:12.994Z,2.10
2019-01-18T07:48:41.367Z,2.37
2019-01-18T07:51:09.751Z,2.25
2019-01-18T07:53:38.124Z,2.00
2019-01-18T07:56:06.954Z,2.00
2019-01-18T07:58:35.321Z,2.90
2019-01-18T08:01:03.696Z,3.73
2019-01-18T08:03:32.081Z,3.17
2019-01-18T08:06:00.466Z,3.00
2019-01-18T08:08:28.915Z,3.67
2019-01-18T08:10:57.301Z,3.40
2019-01-18T08:13:25.739Z,3.30
2019-01-18T08:15:54.121Z,3.22
2019-01-18T08:18:22.537Z,3.23
2019-01-18T08:20:50.907Z,4.27
2019-01-18T08:23:19.289Z,3.33
2019-01-18T08:25:47.660Z,3.50
2019-01-18T08:28:16.050Z,3.40
2019-01-18T08:30:44.431Z,3.73
2019-01-18T08:33:12.816Z,3.57
2019-01-18T08:35:41.190Z,3.10
2019-01-18T08:38:09.571Z,3.30
2019-01-18T08:40:38.473Z,3.53
2019-01-18T08:43:08.168Z,3.15
2019-01-18T08:45:45.457Z,3.23
2019-01-18T08:48:13.903Z,3.00
2019-01-18T08:50:42.863Z,2.80
2019-01-18T08:53:11.333Z,3.27
2019-01-18T08:55:39.742Z,3.10
2019-01-18T08:58:08.127Z,3.20
2019-01-18T09:00:37.530Z,3.23
2019-01-18T09:03:06.152Z,3.03
2019-01-18T09:05:34.532Z,3.00
2019-01-18T09:08:02.911Z,2.73
2019-01-18T09:10:33.323Z,2.93
2019-01-18T09:13:01.696Z,3.10
2019-01-18T09:15:30.239Z,3.13
2019-01-18T09:17:58.790Z,3.27
2019-01-18T09:20:31.950Z,2.90
2019-01-18T09:23:00.421Z,2.70
2019-01-18T09:25:28.860Z,2.90
2019-01-18T09:27:57.306Z,2.97
2019-01-18T09:30:28.527Z,3.10
2019-01-18T09:32:56.907Z,2.80
2019-01-18T09:35:26.385Z,2.80
2019-01-18T09:37:56.513Z,2.63
2019-01-18T09:40:27.219Z,2.50
2019-01-18T09:42:55.674Z,2.75
2019-01-18T09:45:24.042Z,2.80
2019-01-18T09:47:52.424Z,2.55
2019-01-18T09:50:26.938Z,3.07
2019-01-18T09:52:55.660Z,2.93
2019-01-18T09:55:24.039Z,3.25
2019-01-18T09:57:52.412Z,3.30
2019-01-18T10:00:23.567Z,3.25
2019-01-18T10:02:51.946Z,3.93
2019-01-18T10:05:20.859Z,3.60
2019-01-18T10:07:49.295Z,3.10
2019-01-18T10:10:22.554Z,3.20
2019-01-18T10:12:50.888Z,3.80
2019-01-18T10:15:27.632Z,3.65
2019-01-18T10:18:00.645Z,3.52
2019-01-18T10:20:26.178Z,3.60
2019-01-18T10:22:54.556Z,3.35
2019-01-18T10:25:23.104Z,3.83
2019-01-18T10:27:51.469Z,3.50
2019-01-18T10:30:33.428Z,3.30
2019-01-18T10:33:01.804Z,3.70
2019-01-18T10:35:30.250Z,3.37
2019-01-18T10:37:58.697Z,3.70
2019-01-18T10:40:27.084Z,4.10
2019-01-18T10:42:55.630Z,3.72
2019-01-18T10:45:24.272Z,3.87
2019-01-18T10:47:53.021Z,3.10
2019-01-18T10:50:24.175Z,3.43
2019-01-18T10:52:52.690Z,2.97
2019-01-18T10:55:21.068Z,3.33
2019-01-18T10:57:49.440Z,3.30
2019-01-18T11:00:21.735Z,3.17
2019-01-18T11:02:51.646Z,4.05
2019-01-18T11:05:20.957Z,3.30
2019-01-18T11:07:49.494Z,3.58
2019-01-18T11:10:18.022Z,3.90
2019-01-18T11:12:46.399Z,3.30
2019-01-18T11:15:23.282Z,3.67
2019-01-18T11:17:51.652Z,5.70
2019-01-18T11:20:25.390Z,4.77
2019-01-18T11:22:55.217Z,3.90
2019-01-18T11:25:23.614Z,3.50
2019-01-18T11:27:51.976Z,4.17
2019-01-18T11:30:20.355Z,3.40
2019-01-18T11:32:48.732Z,3.75
2019-01-18T11:35:18.359Z,3.67
2019-01-18T11:37:46.729Z,3.80
2019-01-18T11:40:20.130Z,3.30
2019-01-18T11:42:48.731Z,3.50
2019-01-18T11:45:17.544Z,4.20
2019-01-18T11:47:45.911Z,3.67
2019-01-18T11:50:19.441Z,4.17
2019-01-18T11:52:47.809Z,4.15
2019-01-18T11:55:16.188Z,4.30
2019-01-18T11:57:44.559Z,4.13
2019-01-18T12:00:15.550Z,4.60
2019-01-18T12:02:44.202Z,4.63
2019-01-18T12:05:12.830Z,4.80
2019-01-18T12:07:41.548Z,4.90
2019-01-18T12:10:15.876Z,4.87
2019-01-18T12:12:44.253Z,4.80
2019-01-18T12:15:13.372Z,5.00
2019-01-18T12:17:41.824Z,4.30
2019-01-18T12:20:13.501Z,4.37
2019-01-18T12:22:42.014Z,4.60
2019-01-18T12:25:11.045Z,5.30
2019-01-18T12:27:39.426Z,5.47
2019-01-18T12:30:13.654Z,5.27
2019-01-18T12:32:42.047Z,4.47
2019-01-18T12:35:10.416Z,4.80
2019-01-18T12:37:39.482Z,5.00
2019-01-18T12:40:08.025Z,4.87
2019-01-18T12:42:36.496Z,6.03
2019-01-18T12:45:07.921Z,5.33
2019-01-18T12:47:36.322Z,5.60
2019-01-18T12:50:07.739Z,5.50
2019-01-18T12:52:36.128Z,5.30
2019-01-18T12:55:06.662Z,5.03
2019-01-18T12:57:35.042Z,4.93
2019-01-18T13:00:05.092Z,4.87
2019-01-18T13:02:35.377Z,4.63
2019-01-18T13:05:05.809Z,5.43
2019-01-18T13:07:34.193Z,5.30
2019-01-18T13:10:02.567Z,5.20
2019-01-18T13:12:30.952Z,4.83
2019-01-18T13:14:59.324Z,4.10
2019-01-18T13:17:27.713Z,4.57
2019-01-18T13:19:56.087Z,4.80
2019-01-18T13:22:26.107Z,5.53
2019-01-18T13:24:54.729Z,4.80
2019-01-18T13:27:23.107Z,4.97
2019-01-18T13:29:51.482Z,4.93
2019-01-18T13:32:19.861Z,4.80
2019-01-18T13:34:48.231Z,5.23
2019-01-18T13:37:16.616Z,4.57
2019-01-18T13:39:44.992Z,4.73
2019-01-18T13:42:13.366Z,3.90
2019-01-18T13:44:43.703Z,4.00
2019-01-18T13:47:18.086Z,4.90
2019-01-18T13:49:42.159Z,4.70
2019-01-18T13:52:10.533Z,4.23
2019-01-18T13:54:38.903Z,3.73
2019-01-18T13:57:07.275Z,4.03
2019-01-18T13:59:35.721Z,3.93
2019-01-18T14:02:04.259Z,3.77
2019-01-18T14:04:32.644Z,3.40
2019-01-18T14:07:01.017Z,3.70
2019-01-18T14:09:29.400Z,4.20
2019-01-18T14:11:57.774Z,3.87
2019-01-18T14:14:26.164Z,3.90
2019-01-18T14:16:54.536Z,3.80
2019-01-18T14:19:22.919Z,3.90
2019-01-18T14:21:51.291Z,3.73
2019-01-18T14:24:19.848Z,4.20
2019-01-18T14:26:48.219Z,3.43
2019-01-18T14:29:16.603Z,4.30
2019-01-18T14:31:44.973Z,3.50
2019-01-18T14:34:13.350Z,3.73
2019-01-18T14:36:41.728Z,3.80
2019-01-18T14:39:11.555Z,3.53
2019-01-18T14:41:40.441Z,3.62
2019-01-18T14:44:08.824Z,4.00
2019-01-18T14:46:37.195Z,3.33
2019-01-18T14:49:05.722Z,3.50
2019-01-18T14:51:34.113Z,3.93
2019-01-18T14:54:02.596Z,3.70
2019-01-18T14:56:30.992Z,3.60
2019-01-18T14:58:59.382Z,3.40
2019-01-18T15:01:27.753Z,3.10
2019-01-18T15:03:56.126Z,3.50
2019-01-18T15:06:24.544Z,3.17
2019-01-18T15:08:52.925Z,3.53
2019-01-18T15:11:21.299Z,3.35
2019-01-18T15:13:49.667Z,3.80
2019-01-18T15:16:18.159Z,3.60
2019-01-18T15:18:46.529Z,3.63
2019-01-18T15:21:14.909Z,3.67
2019-01-18T15:23:43.279Z,3.00
2019-01-18T15:26:18.286Z,2.70
2019-01-18T15:28:41.752Z,3.30
2019-01-18T15:31:10.800Z,3.17
2019-01-18T15:33:39.173Z,2.80
2019-01-18T15:36:07.765Z,2.83
2019-01-18T15:38:36.145Z,3.00
2019-01-18T15:41:04.893Z,3.10
2019-01-18T15:43:34.274Z,2.70
2019-01-18T15:46:02.729Z,3.43
2019-01-18T15:48:31.099Z,3.23
2019-01-18T15:50:59.483Z,3.13
2019-01-18T15:53:27.872Z,3.03
2019-01-18T15:55:56.239Z,3.27
2019-01-18T15:58:24.607Z,2.90
2019-01-18T16:00:52.987Z,3.00
2019-01-18T16:03:21.360Z,3.50
2019-01-18T16:05:49.903Z,3.20
2019-01-18T16:08:18.272Z,3.30
2019-01-18T16:10:46.653Z,3.42
2019-01-18T16:13:15.085Z,2.90
2019-01-18T16:15:55.338Z,2.67
2019-01-18T16:18:24.843Z,2.87
2019-01-18T16:20:53.296Z,3.20
2019-01-18T16:23:21.934Z,2.83
2019-01-18T16:25:50.321Z,2.98
2019-01-18T16:28:18.752Z,3.03
2019-01-18T16:30:47.137Z,2.53
2019-01-18T16:33:15.511Z,2.80
2019-01-18T16:35:43.894Z,2.70
2019-01-18T16:38:13.013Z,2.90
2019-01-18T16:40:41.437Z,2.70
2019-01-18T16:43:21.988Z,2.90
2019-01-18T16:45:50.437Z,2.77
2019-01-18T16:48:18.808Z,2.90
2019-01-18T16:50:47.189Z,3.17
2019-01-18T16:53:15.640Z,2.70
2019-01-18T16:55:44.015Z,2.80
2019-01-18T16:58:12.393Z,2.90
2019-01-18T17:00:50.371Z,2.50
2019-01-18T17:03:18.745Z,2.80
2019-01-18T17:05:47.121Z,2.83
2019-01-18T17:08:15.500Z,2.80
2019-01-18T17:10:43.866Z,2.90
2019-01-18T17:13:12.283Z,2.93
2019-01-18T17:15:40.656Z,2.50
2019-01-18T17:18:09.194Z,2.47
2019-01-18T17:20:43.438Z,2.10
2019-01-18T17:23:11.948Z,2.60
2019-01-18T17:25:40.322Z,2.57
2019-01-18T17:28:08.762Z,2.83
2019-01-18T17:30:37.132Z,2.70
2019-01-18T17:33:05.752Z,2.50
2019-01-18T17:35:43.252Z,2.20
2019-01-18T17:38:21.036Z,2.67
2019-01-18T17:40:52.453Z,3.17
2019-01-18T17:43:58.973Z,2.42
2019-01-18T17:46:39.579Z,2.33
2019-01-18T17:49:28.833Z,2.90
2019-01-18T17:52:02.998Z,2.53
2019-01-18T17:54:36.931Z,2.70
2019-01-18T17:57:43.460Z,3.00
2019-01-18T18:00:34.651Z,3.10
2019-01-18T18:03:15.033Z,2.80
2019-01-18T18:05:55.511Z,2.60
2019-01-18T18:08:48.422Z,2.50
2019-01-18T18:11:23.094Z,3.03
2019-01-18T18:14:04.603Z,2.53
2019-01-18T18:17:02.008Z,2.70
2019-01-18T18:20:05.197Z,3.07
2019-01-18T18:22:36.605Z,2.73
2019-01-18T18:25:16.695Z,3.10
2019-01-18T18:28:00.350Z,3.03
2019-01-18T18:30:34.546Z,3.13
2019-01-18T18:33:26.907Z,3.30
2019-01-18T18:36:10.155Z,3.37
2019-01-18T18:39:01.482Z,2.57
2019-01-18T18:41:35.787Z,2.73
2019-01-18T18:44:46.012Z,2.93
2019-01-18T18:47:20.464Z,3.30
2019-01-18T18:50:11.268Z,2.43
2019-01-18T18:53:09.582Z,2.80
2019-01-18T18:55:43.587Z,2.60
2019-01-18T18:58:21.568Z,3.03
2019-01-18T19:01:08.131Z,2.90
2019-01-18T19:03:57.559Z,3.17
2019-01-18T19:06:54.854Z,3.87
2019-01-18T19:09:50.340Z,3.13
2019-01-18T19:12:38.386Z,2.67
2019-01-18T19:15:09.809Z,2.90
2019-01-18T19:17:59.425Z,2.97
2019-01-18T19:20:45.742Z,3.50
2019-01-18T19:23:17.175Z,3.57
2019-01-18T19:25:48.590Z,3.37
2019-01-18T19:28:32.092Z,3.60
2019-01-18T19:31:21.341Z,3.17
2019-01-18T19:34:11.874Z,3.83
2019-01-18T19:36:55.003Z,3.60
2019-01-18T19:39:44.564Z,3.17
2019-01-18T19:42:45.124Z,3.90
2019-01-18T19:45:19.205Z,3.60
2019-01-18T19:47:56.442Z,3.50
2019-01-18T19:50:44.049Z,3.17
2019-01-18T19:53:21.966Z,2.90
2019-01-18T19:56:05.307Z,3.13
2019-01-18T19:58:42.395Z,3.10
2019-01-18T20:01:13.812Z,3.20
2019-01-18T20:03:51.008Z,3.50
2019-01-18T20:06:50.025Z,3.37
2019-01-18T20:09:41.470Z,2.97
2019-01-18T20:12:18.656Z,2.97
2019-01-18T20:15:17.033Z,2.80
2019-01-18T20:17:48.412Z,3.07
2019-01-18T20:20:42.663Z,2.77
2019-01-18T20:23:37.900Z,219.00
2019-01-18T20:26:23.869Z,37.77
2019-01-18T20:28:55.300Z,35.33
2019-01-18T20:31:29.464Z,27.33
2019-01-18T20:34:03.514Z,95.13
2019-01-18T20:36:43.635Z,205.97
2019-01-18T20:39:21.191Z,536.23
2019-01-18T20:42:07.481Z,309.00
2019-01-18T20:44:44.650Z,150.80
2019-01-18T20:47:23.036Z,116.77
2019-01-18T20:49:54.476Z,95.80
2019-01-18T20:52:43.916Z,82.30
2019-01-18T20:55:30.349Z,71.43
2019-01-18T20:58:04.740Z,63.63
2019-01-18T21:00:47.827Z,59.20
2019-01-18T21:03:47.648Z,53.33
2019-01-18T21:06:19.080Z,50.80
2019-01-18T21:09:08.434Z,45.93
2019-01-18T21:11:51.810Z,42.90
2019-01-18T21:14:44.589Z,76.03
2019-01-18T21:17:32.792Z,806.83
2019-01-18T21:20:18.654Z,468.60
2019-01-18T21:23:05.521Z,285.37
2019-01-18T21:25:46.048Z,243.20
2019-01-18T21:28:44.229Z,196.87
2019-01-18T21:31:15.654Z,175.10
2019-01-18T21:34:03.777Z,153.10
2019-01-18T21:36:41.267Z,137.97
2019-01-18T21:39:30.689Z,129.63
2019-01-18T21:42:16.890Z,115.57
2019-01-18T21:44:54.375Z,112.73
2019-01-18T21:47:44.150Z,109.00
2019-01-18T21:50:39.325Z,104.87
2019-01-18T21:53:10.768Z,112.83
2019-01-18T21:56:08.784Z,115.80
2019-01-18T21:58:51.606Z,103.70
2019-01-18T22:01:28.515Z,99.50
2019-01-18T22:04:12.041Z,88.87
2019-01-18T22:07:13.920Z,87.67
2019-01-18T22:09:47.993Z,83.33
2019-01-18T22:12:31.301Z,78.13
2019-01-18T22:15:11.724Z,76.70
2019-01-18T22:17:48.570Z,65.73
2019-01-18T22:20:31.852Z,65.67
2019-01-18T22:23:11.983Z,62.93
2019-01-18T22:25:43.426Z,62.90
2019-01-18T22:28:17.587Z,60.10
2019-01-18T22:31:05.767Z,59.60
2019-01-18T22:33:43.272Z,57.10
2019-01-18T22:36:17.348Z,56.10
2019-01-18T22:39:04.305Z,54.57
2019-01-18T22:41:38.319Z,53.07
2019-01-18T22:44:09.744Z,48.63
2019-01-18T22:46:47.184Z,48.23
2019-01-18T22:49:34.685Z,46.50
2019-01-18T22:52:11.793Z,46.18
2019-01-18T22:55:04.255Z,44.50
2019-01-18T22:57:35.683Z,44.10
2019-01-18T23:00:39.796Z,46.57
2019-01-18T23:03:19.920Z,43.70
2019-01-18T23:05:51.345Z,41.03
2019-01-18T23:08:39.471Z,40.53
2019-01-18T23:11:16.419Z,40.17
2019-01-18T23:14:03.262Z,38.93
2019-01-18T23:16:49.820Z,37.10
2019-01-18T23:19:30.418Z,40.10
2019-01-18T23:22:27.493Z,35.37
2019-01-18T23:25:14.080Z,33.05
2019-01-18T23:28:02.195Z,32.97
2019-01-18T23:30:48.499Z,32.63
2019-01-18T23:33:40.951Z,32.23
2019-01-18T23:36:15.189Z,32.73
2019-01-18T23:39:04.254Z,30.80
2019-01-18T23:41:55.172Z,31.27
2019-01-18T23:44:49.244Z,28.52
2019-01-18T23:47:26.630Z,28.57
2019-01-18T23:50:03.104Z,27.67
2019-01-18T23:53:07.251Z,28.10
2019-01-18T23:55:53.994Z,25.87
2019-01-18T23:58:43.093Z,27.30
